Time;durP1;ratioP1;P1;durP2;ratioP2;P2;SDS_P1;SDS_P2;PMS_P1;PMS_P2;Temp;Humidity;BMP_temperature;BMP_pressure;BME280_temperature;BME280_humidity;BME280_pressure;Samples;Min_cycle;Max_cycle;Signal;HPM_P1;HPM_P2
2022/02/09 00:00:41;;;;;;;4.18;2.00;;;11.00;57.10;;;;;;5059044;28;20025;-76
2022/02/09 00:03:14;;;;;;;3.85;1.55;;;11.00;56.50;;;;;;5041303;28;20499;-76
2022/02/09 00:08:07;;;;;;;5.97;1.70;;;10.90;56.40;;;;;;5058916;28;20070;-75
2022/02/09 00:10:35;;;;;;;5.25;1.50;;;10.90;56.90;;;;;;5041466;28;20071;-75
2022/02/09 00:15:47;;;;;;;3.63;1.35;;;10.90;56.20;;;;;;5074495;28;20377;-76
2022/02/09 00:18:29;;;;;;;6.55;1.63;;;10.90;56.30;;;;;;5061130;28;20124;-76
2022/02/09 00:21:52;;;;;;;4.15;1.58;;;10.90;56.30;;;;;;5077981;28;20518;-77
2022/02/09 00:40:08;;;;;;;2.55;1.30;;;10.80;56.30;;;;;;5076057;28;20174;-75
2022/02/09 00:59:14;;;;;;;4.47;1.67;;;10.80;56.10;;;;;;5055154;28;20043;-75
2022/02/09 01:56:32;;;;;;;3.65;1.20;;;10.50;55.90;;;;;;5094428;28;20073;-75
2022/02/09 01:58:58;;;;;;;2.78;1.45;;;10.50;55.90;;;;;;5094573;28;20157;-76
2022/02/09 02:01:25;;;;;;;5.75;1.70;;;10.40;56.00;;;;;;5093215;28;20035;-74
2022/02/09 02:03:51;;;;;;;3.80;1.50;;;10.40;56.10;;;;;;5094443;28;20024;-75
2022/02/09 02:06:18;;;;;;;3.05;1.30;;;10.40;56.10;;;;;;5093090;28;20107;-75
2022/02/09 02:08:46;;;;;;;2.05;1.33;;;10.40;56.10;;;;;;5093894;28;20104;-75
2022/02/09 02:11:22;;;;;;;2.80;1.50;;;10.40;56.10;;;;;;5081544;28;20059;-75
2022/02/09 02:16:27;;;;;;;3.60;1.33;;;10.30;56.10;;;;;;5073235;28;20027;-75
2022/02/09 02:18:58;;;;;;;3.70;1.40;;;10.30;56.20;;;;;;5055807;28;20024;-76
2022/02/09 03:12:35;;;;;;;2.88;1.27;;;10.10;55.70;;;;;;5073436;28;20034;-74
2022/02/09 03:17:41;;;;;;;5.32;1.67;;;10.20;55.70;;;;;;5073362;28;20067;-75
2022/02/09 03:20:30;;;;;;;3.95;1.65;;;10.10;55.60;;;;;;5055274;28;20055;-77
2022/02/09 03:23:03;;;;;;;4.68;1.73;;;10.20;55.60;;;;;;5066423;28;20028;-76
2022/02/09 03:44:48;;;;;;;5.43;1.80;;;10.40;55.40;;;;;;5078344;28;20031;-75
2022/02/09 03:57:46;;;;;;;4.10;1.50;;;10.40;55.30;;;;;;5093069;28;19904;-75
2022/02/09 04:00:21;;;;;;;4.88;1.33;;;10.40;55.00;;;;;;5096260;28;20020;-75
2022/02/09 04:02:48;;;;;;;3.97;1.50;;;10.40;55.00;;;;;;5096976;28;20055;-75
2022/02/09 04:05:17;;;;;;;3.92;1.40;;;10.40;54.90;;;;;;5096823;28;20042;-75
2022/02/09 04:07:43;;;;;;;3.65;1.20;;;10.40;55.10;;;;;;5095327;28;20123;-75
2022/02/09 04:10:13;;;;;;;2.55;1.20;;;10.30;55.20;;;;;;5095367;28;20103;-75
2022/02/09 04:12:58;;;;;;;2.80;1.30;;;10.30;55.10;;;;;;5075928;28;20040;-75
2022/02/09 04:57:47;;;;;;;4.20;1.30;;;10.40;55.30;;;;;;5075393;28;20127;-75
2022/02/09 05:00:43;;;;;;;5.00;1.58;;;10.40;55.40;;;;;;5074006;28;20020;-75
2022/02/09 05:22:19;;;;;;;3.53;1.67;;;10.50;55.20;;;;;;5075136;28;20116;-75
2022/02/09 05:24:59;;;;;;;3.08;1.52;;;10.40;55.20;;;;;;5090741;28;20033;-75
2022/02/09 05:30:10;;;;;;;;;;;10.40;55.20;;;;;;5075169;28;20067;-75
2022/02/09 05:32:35;;;;;;;7.13;1.60;;;10.40;55.40;;;;;;5075231;28;19935;-75
2022/02/09 05:35:01;;;;;;;5.45;2.40;;;10.50;55.20;;;;;;5089770;28;20084;-75
2022/02/09 05:37:27;;;;;;;3.22;1.60;;;10.50;55.30;;;;;;5075016;28;20028;-75
2022/02/09 05:39:53;;;;;;;4.70;1.83;;;10.40;55.30;;;;;;5072875;28;20050;-75
2022/02/09 05:42:19;;;;;;;4.78;1.67;;;10.50;55.40;;;;;;5056668;28;20029;-75
2022/02/09 05:44:44;;;;;;;4.57;1.65;;;10.50;55.30;;;;;;5056369;28;20499;-75
2022/02/09 05:47:54;;;;;;;6.18;1.83;;;10.50;55.30;;;;;;5056648;28;20025;-78
2022/02/09 05:53:15;;;;;;;5.07;2.20;;;10.50;55.20;;;;;;5082435;28;20040;-75
2022/02/09 05:55:35;;;;;;;5.13;1.90;;;10.50;55.10;;;;;;5068421;28;20146;-76
2022/02/09 05:58:13;;;;;;;4.88;2.00;;;10.40;54.90;;;;;;5056502;28;20028;-75
2022/02/09 06:00:47;;;;;;;4.53;2.20;;;10.40;54.90;;;;;;5056284;28;20036;-75
2022/02/09 06:03:16;;;;;;;;;;;10.30;54.90;;;;;;5056397;28;20027;-75
2022/02/09 06:05:42;;;;;;;3.72;1.60;;;10.20;55.00;;;;;;5055929;28;19905;-75
2022/02/09 06:08:08;;;;;;;2.72;1.88;;;10.10;54.70;;;;;;5056141;28;20118;-75
2022/02/09 06:10:35;;;;;;;3.53;1.35;;;10.00;54.90;;;;;;5055918;28;20063;-78
2022/02/09 06:13:41;;;;;;;3.03;1.70;;;9.90;55.10;;;;;;5072874;28;20025;-75
2022/02/09 06:19:38;;;;;;;3.95;1.52;;;9.80;55.10;;;;;;5088503;28;20028;-75
2022/02/09 06:21:38;;;;;;;19.88;9.68;;;9.60;55.50;;;;;;5073171;28;20077;-75
2022/02/09 06:24:04;;;;;;;15.27;6.65;;;9.40;55.70;;;;;;5074174;28;20029;-75
2022/02/09 06:26:30;;;;;;;9.13;4.47;;;9.40;55.90;;;;;;5073561;28;20031;-75
2022/02/09 06:28:55;;;;;;;9.55;3.15;;;9.30;56.00;;;;;;5073767;28;20028;-75
2022/02/09 06:31:21;;;;;;;4.70;2.42;;;9.20;56.10;;;;;;5073817;28;20032;-74
2022/02/09 06:33:47;;;;;;;5.85;2.38;;;9.10;56.20;;;;;;5072039;28;20067;-75
2022/02/09 06:36:15;;;;;;;4.65;2.03;;;9.00;56.40;;;;;;5055681;28;20029;-75
2022/02/09 06:38:40;;;;;;;13.20;3.05;;;9.00;56.60;;;;;;5073604;28;20021;-75
2022/02/09 06:41:09;;;;;;;5.38;2.47;;;8.90;56.50;;;;;;5075162;28;20051;-75
2022/02/09 06:43:36;;;;;;;4.63;2.40;;;8.80;56.70;;;;;;5092139;28;20166;-75
2022/02/09 06:46:02;;;;;;;11.95;2.92;;;8.80;56.90;;;;;;5093835;28;20056;-75
2022/02/09 06:48:30;;;;;;;9.90;3.35;;;8.70;56.90;;;;;;5093677;28;20035;-75
2022/02/09 06:51:01;;;;;;;13.88;3.65;;;8.70;57.10;;;;;;5093729;28;20016;-75
2022/02/09 06:53:36;;;;;;;6.43;2.63;;;8.70;57.30;;;;;;5092456;28;20393;-75
2022/02/09 06:56:03;;;;;;;9.27;3.22;;;8.60;57.40;;;;;;5077389;28;20024;-75
2022/02/09 07:01:03;;;;;;;15.33;5.13;;;8.60;57.60;;;;;;5093377;28;20020;-75
2022/02/09 07:03:29;;;;;;;13.75;4.32;;;8.60;57.90;;;;;;5092732;28;20088;-75
2022/02/09 07:05:55;;;;;;;8.65;4.50;;;8.60;58.10;;;;;;5093184;28;20028;-75
2022/02/09 07:08:20;;;;;;;12.98;3.70;;;8.60;58.40;;;;;;5093140;28;20036;-74
2022/02/09 07:10:47;;;;;;;13.43;3.67;;;8.70;58.60;;;;;;5093172;28;20062;-79
2022/02/09 07:13:13;;;;;;;8.77;3.58;;;8.70;58.70;;;;;;5093360;28;20026;-75
2022/02/09 07:15:48;;;;;;;10.38;3.15;;;8.70;58.90;;;;;;5075002;28;20024;-77
2022/02/09 07:18:14;;;;;;;13.68;4.15;;;8.70;58.90;;;;;;5075150;28;20036;-75
2022/02/09 07:23:25;;;;;;;11.85;5.30;;;8.70;59.00;;;;;;5093369;28;20031;-75
2022/02/09 07:28:36;;;;;;;11.18;4.45;;;8.90;59.20;;;;;;5089482;28;20044;-74
2022/02/09 07:31:03;;;;;;;7.97;4.15;;;8.90;59.10;;;;;;5072880;28;20033;-76
2022/02/09 07:33:29;;;;;;;21.15;5.10;;;8.90;59.10;;;;;;5074964;28;20057;-75
2022/02/09 07:35:55;;;;;;;11.00;4.50;;;9.00;59.10;;;;;;5059135;28;20024;-75
2022/02/09 07:38:21;;;;;;;12.88;3.58;;;9.00;59.10;;;;;;5059064;28;20357;-75
2022/02/09 07:40:47;;;;;;;13.85;3.22;;;9.10;59.10;;;;;;5077022;28;20035;-75
2022/02/09 07:43:21;;;;;;;10.57;2.70;;;9.10;59.00;;;;;;5058695;28;20029;-75
2022/02/09 07:46:17;;;;;;;8.18;3.25;;;9.10;58.90;;;;;;5058459;28;20083;-75
2022/02/09 07:48:56;;;;;;;9.07;2.92;;;9.20;58.90;;;;;;5077862;28;20031;-75
2022/02/09 07:56:17;;;;;;;6.82;2.47;;;9.30;58.80;;;;;;5076669;28;20387;-75
2022/02/09 07:58:44;;;;;;;12.45;3.55;;;9.40;58.80;;;;;;5058606;28;20029;-75
2022/02/09 08:01:10;;;;;;;9.07;4.18;;;9.40;58.80;;;;;;5058500;28;20067;-75
2022/02/09 08:03:39;;;;;;;13.90;4.75;;;9.40;58.80;;;;;;5058560;28;20028;-77
2022/02/09 08:06:05;;;;;;;12.57;4.30;;;9.40;58.80;;;;;;5076162;28;20114;-75
2022/02/09 08:08:33;;;;;;;10.23;4.35;;;9.50;58.80;;;;;;5058339;28;20478;-75
2022/02/09 08:11:12;;;;;;;7.00;3.10;;;9.50;58.80;;;;;;5058545;28;20365;-75
2022/02/09 08:30:03;;;;;;;5.35;2.78;;;9.90;58.40;;;;;;5077544;28;20074;-75
2022/02/09 08:34:59;;;;;;;8.48;3.85;;;10.10;58.40;;;;;;5075858;28;20450;-75
2022/02/09 08:37:26;;;;;;;11.35;3.97;;;10.10;58.30;;;;;;5075905;28;20484;-74
2022/02/09 08:39:54;;;;;;;6.60;3.55;;;10.10;58.00;;;;;;5058178;28;20510;-74
2022/02/09 08:42:20;;;;;;;6.75;2.90;;;10.20;58.00;;;;;;5075939;28;20027;-74
2022/02/09 08:44:46;;;;;;;4.93;2.42;;;10.30;57.90;;;;;;5065214;28;20028;-73
2022/02/09 08:47:12;;;;;;;4.97;2.38;;;10.30;57.70;;;;;;5086446;28;20098;-81
2022/02/09 08:49:38;;;;;;;5.78;2.53;;;10.40;57.50;;;;;;5057033;28;20063;-74
2022/02/09 08:52:05;;;;;;;5.00;2.72;;;10.50;57.30;;;;;;5057023;28;20021;-75
2022/02/09 08:54:31;;;;;;;5.07;2.22;;;10.50;57.60;;;;;;5075546;28;20488;-73
2022/02/09 08:56:58;;;;;;;4.15;2.05;;;10.60;56.50;;;;;;5057777;28;20082;-74
2022/02/09 08:59:28;;;;;;;5.25;2.50;;;10.70;56.50;;;;;;5075743;28;20028;-74
2022/02/09 09:02:02;;;;;;;5.32;2.80;;;10.70;56.40;;;;;;5058029;28;20123;-74
2022/02/09 09:04:33;;;;;;;6.25;2.97;;;10.80;56.00;;;;;;5057637;28;20025;-73
2022/02/09 09:07:05;;;;;;;9.73;5.07;;;10.90;56.00;;;;;;5075762;28;20093;-74
2022/02/09 09:58:10;;;;;;;5.88;2.85;;;12.10;51.80;;;;;;5050182;28;20050;-73
2022/02/09 10:34:12;;;;;;;6.38;2.28;;;13.40;49.50;;;;;;5093586;28;20144;-74
2022/02/09 10:36:59;;;;;;;4.72;1.83;;;13.40;48.80;;;;;;5075411;28;20072;-74
2022/02/09 10:39:45;;;;;;;2.90;1.63;;;13.40;48.90;;;;;;5075575;28;20085;-74
2022/02/09 10:44:49;;;;;;;5.75;2.22;;;13.40;49.00;;;;;;5073313;28;20341;-74
2022/02/09 10:47:35;;;;;;;7.90;2.78;;;13.40;48.70;;;;;;5073443;28;20028;-74
2022/02/09 10:50:40;;;;;;;3.10;1.80;;;13.40;48.60;;;;;;5072172;28;20039;-74
2022/02/09 10:53:11;;;;;;;7.88;2.20;;;13.40;48.20;;;;;;5081102;28;20433;-74
2022/02/09 10:55:44;;;;;;;6.78;2.05;;;13.40;48.20;;;;;;5091743;28;20378;-74
2022/02/09 10:58:22;;;;;;;3.33;2.20;;;13.40;48.40;;;;;;5075374;28;20024;-76
2022/02/09 11:00:49;;;;;;;4.85;2.13;;;13.40;48.50;;;;;;5075244;28;20706;-75
2022/02/09 11:03:21;;;;;;;6.00;1.80;;;13.40;48.00;;;;;;5093287;28;20024;-75
2022/02/09 11:05:49;;;;;;;3.17;1.85;;;13.50;48.40;;;;;;5093373;28;20024;-75
2022/02/09 11:08:15;;;;;;;4.15;1.63;;;13.50;48.70;;;;;;5091271;28;20066;-74
2022/02/09 11:10:43;;;;;;;5.30;2.00;;;13.50;48.40;;;;;;5075187;28;20479;-75
2022/02/09 11:13:11;;;;;;;3.97;2.05;;;13.50;48.00;;;;;;5093136;28;20026;-76
2022/02/09 11:15:41;;;;;;;4.45;2.05;;;13.50;48.00;;;;;;5075190;28;20028;-76
2022/02/09 11:18:15;;;;;;;6.10;1.67;;;13.50;48.20;;;;;;5074955;28;20454;-75
2022/02/09 11:21:07;;;;;;;4.07;2.03;;;13.50;48.40;;;;;;5075159;28;20058;-75
2022/02/09 11:23:45;;;;;;;6.43;1.90;;;13.60;48.30;;;;;;5093196;28;20297;-75
2022/02/09 11:26:59;;;;;;;4.43;1.92;;;13.60;48.30;;;;;;5075184;28;20077;-75
2022/02/09 11:30:11;;;;;;;9.63;2.13;;;13.70;48.40;;;;;;5091774;28;20036;-75
2022/02/09 11:35:16;;;;;;;5.05;1.90;;;13.80;47.90;;;;;;5072850;28;20049;-76
2022/02/09 11:38:09;;;;;;;9.45;1.92;;;13.70;47.90;;;;;;5054878;28;20119;-75
2022/02/09 11:40:49;;;;;;;14.07;2.17;;;13.80;47.90;;;;;;5072855;28;20374;-75
2022/02/09 11:51:29;;;;;;;4.78;1.92;;;13.90;48.00;;;;;;5072509;28;20036;-75
2022/02/09 11:57:06;;;;;;;5.55;2.05;;;13.90;47.90;;;;;;5072387;28;20040;-76
2022/02/09 12:11:30;;;;;;;6.65;2.00;;;14.10;48.20;;;;;;5072486;28;20071;-76
2022/02/09 12:19:02;;;;;;;6.10;2.17;;;14.30;48.00;;;;;;5072446;28;20044;-75
2022/02/09 12:24:46;;;;;;;5.90;2.05;;;14.50;47.30;;;;;;4994275;28;20457;-75
2022/02/09 12:27:19;;;;;;;5.65;2.00;;;14.50;47.60;;;;;;4994336;28;20166;-75
2022/02/09 12:29:48;;;;;;;5.85;2.30;;;14.60;47.50;;;;;;4994112;28;20058;-75
2022/02/09 12:32:16;;;;;;;4.57;1.90;;;14.70;47.40;;;;;;5012275;28;20048;-75
2022/02/09 12:34:55;;;;;;;4.90;2.00;;;14.80;47.50;;;;;;4997151;28;20050;-75
2022/02/09 12:37:22;;;;;;;4.65;2.15;;;14.90;47.10;;;;;;5013833;28;20034;-75
2022/02/09 12:39:56;;;;;;;4.60;1.52;;;15.00;47.10;;;;;;5013526;28;20401;-75
2022/02/09 12:42:46;;;;;;;3.33;1.75;;;15.10;46.90;;;;;;4997342;28;20057;-75
2022/02/09 12:45:17;;;;;;;4.18;1.58;;;15.20;46.50;;;;;;5013733;28;20030;-75
2022/02/09 12:47:52;;;;;;;6.85;1.92;;;15.30;46.10;;;;;;4997024;28;20077;-75
2022/02/09 12:50:30;;;;;;;9.38;2.08;;;15.30;45.70;;;;;;5013469;28;20026;-75
2022/02/09 12:52:57;;;;;;;3.58;1.50;;;15.30;45.80;;;;;;4997026;28;20535;-75
2022/02/09 12:55:27;;;;;;;4.13;1.58;;;15.40;45.90;;;;;;5013430;28;20025;-76
2022/02/09 12:58:05;;;;;;;4.32;1.52;;;15.50;45.90;;;;;;5022801;28;20484;-75
2022/02/09 13:00:34;;;;;;;4.63;1.88;;;15.50;45.30;;;;;;5075377;28;20035;-75
2022/02/09 13:03:06;;;;;;;4.13;1.40;;;15.60;45.20;;;;;;5074977;28;20464;-75
2022/02/09 13:05:40;;;;;;;2.92;1.55;;;15.60;44.80;;;;;;5075058;28;20028;-75
2022/02/09 13:08:06;;;;;;;3.17;1.40;;;15.50;44.80;;;;;;5074986;28;20051;-75
2022/02/09 13:10:39;;;;;;;5.35;1.38;;;15.40;44.30;;;;;;5075141;28;20028;-75
2022/02/09 13:15:40;;;;;;;4.60;1.80;;;15.30;45.10;;;;;;5075130;28;20322;-75
2022/02/09 14:13:03;;;;;;;3.65;1.92;;;14.10;46.90;;;;;;5094463;28;20032;-75
2022/02/09 14:16:28;;;;;;;6.57;2.05;;;14.10;47.00;;;;;;5092433;28;20035;-75
2022/02/09 14:18:42;;;;;;;12.45;2.20;;;14.10;47.10;;;;;;5089836;28;20032;-75
2022/02/09 14:54:03;;;;;;;5.67;1.90;;;13.90;47.60;;;;;;5073594;28;20025;-76
2022/02/09 14:59:19;;;;;;;3.47;1.75;;;13.80;48.10;;;;;;5073409;28;20036;-75
2022/02/09 15:01:54;;;;;;;5.28;2.25;;;13.80;48.10;;;;;;5055267;28;20039;-75
2022/02/09 15:12:17;;;;;;;6.10;2.08;;;13.70;48.20;;;;;;5072954;28;20071;-74
2022/02/09 15:22:23;;;;;;;7.97;1.90;;;13.50;48.40;;;;;;5072694;28;20073;-75
2022/02/09 15:24:50;;;;;;;7.10;2.05;;;13.50;49.10;;;;;;5073089;28;20063;-75
2022/02/09 15:27:21;;;;;;;5.80;1.98;;;13.40;48.70;;;;;;5067757;28;20024;-75
2022/02/09 15:29:48;;;;;;;4.35;2.10;;;13.40;48.80;;;;;;5075502;28;20032;-75
2022/02/09 15:32:38;;;;;;;10.98;2.00;;;13.30;48.70;;;;;;5074819;28;20032;-75
2022/02/09 15:35:55;;;;;;;5.20;2.10;;;13.30;49.40;;;;;;5093266;28;20048;-75
2022/02/09 15:38:03;;;;;;;3.42;1.70;;;13.20;48.90;;;;;;5078332;28;20028;-75
2022/02/09 15:40:50;;;;;;;4.15;1.85;;;13.20;49.00;;;;;;5091910;28;20027;-75
2022/02/09 15:57:00;;;;;;;5.35;2.90;;;12.90;49.70;;;;;;5096970;28;20123;-75
2022/02/09 16:05:32;;;;;;;6.50;3.20;;;12.80;49.80;;;;;;5095545;28;20044;-75
2022/02/09 16:08:56;;;;;;;6.00;3.00;;;12.50;50.10;;;;;;5096776;28;20526;-75
2022/02/09 16:19:34;;;;;;;14.25;5.78;;;12.20;50.50;;;;;;5096211;28;20043;-74
2022/02/09 16:21:49;;;;;;;7.25;3.38;;;12.20;50.60;;;;;;5095813;28;20035;-74
2022/02/09 16:46:23;;;;;;;7.50;4.20;;;11.40;51.60;;;;;;5085078;28;20035;-76
2022/02/09 16:51:31;;;;;;;8.80;3.97;;;11.20;52.10;;;;;;5090340;28;20032;-76
2022/02/09 16:56:58;;;;;;;8.57;3.25;;;11.10;52.30;;;;;;5075687;28;20029;-75
2022/02/09 17:18:48;;;;;;;13.93;2.72;;;10.60;53.10;;;;;;5095402;28;20034;-77
2022/02/09 17:21:11;;;;;;;5.80;2.63;;;10.60;53.40;;;;;;5094063;28;20028;-77
2022/02/09 17:23:37;;;;;;;5.90;2.85;;;10.50;53.50;;;;;;5065016;28;20037;-77
2022/02/09 17:26:04;;;;;;;7.40;2.78;;;10.40;53.70;;;;;;5077037;28;20479;-77
2022/02/09 17:28:29;;;;;;;8.05;3.17;;;10.30;53.80;;;;;;5076833;28;20031;-77
2022/02/09 17:31:05;;;;;;;5.75;2.42;;;10.30;53.80;;;;;;5076658;28;20093;-77
2022/02/09 17:36:09;;;;;;;12.35;2.83;;;10.20;54.10;;;;;;5094847;28;20020;-77
2022/02/09 17:38:56;;;;;;;7.25;3.45;;;10.10;54.10;;;;;;5065463;28;20047;-77
2022/02/09 18:00:12;;;;;;;12.18;4.82;;;9.80;55.20;;;;;;5094593;28;20554;-76
2022/02/09 18:02:39;;;;;;;9.40;4.85;;;9.70;55.40;;;;;;5094216;28;20555;-77
2022/02/09 18:05:12;;;;;;;11.93;6.18;;;9.70;55.60;;;;;;5076184;28;20463;-76
2022/02/09 18:07:40;;;;;;;18.67;6.07;;;9.60;55.80;;;;;;5076333;28;20036;-76
2022/02/09 18:10:44;;;;;;;11.05;5.03;;;9.60;55.90;;;;;;5076238;28;20039;-78
2022/02/09 18:13:19;;;;;;;11.35;5.75;;;9.60;56.00;;;;;;5093572;28;20122;-76
2022/02/09 18:29:28;;;;;;;10.82;6.15;;;9.30;55.50;;;;;;5073702;28;20082;-76
2022/02/09 18:45:31;;;;;;;14.30;5.53;;;9.00;56.50;;;;;;5093857;28;20035;-76
2022/02/09 19:04:12;;;;;;;11.02;4.50;;;8.70;56.70;;;;;;5080118;28;20031;-70
2022/02/09 19:31:48;;;;;;;19.00;8.55;;;8.40;57.10;;;;;;5077065;28;20054;-72
2022/02/09 19:45:20;;;;;;;13.35;7.22;;;8.20;57.60;;;;;;5096976;28;19914;-71
2022/02/09 19:52:45;;;;;;;13.00;7.03;;;8.10;58.10;;;;;;5096407;28;20089;-70
2022/02/09 19:57:55;;;;;;;13.73;7.47;;;8.00;58.20;;;;;;5076797;28;20082;-70
2022/02/09 20:00:22;;;;;;;12.00;6.80;;;8.00;58.30;;;;;;5059803;28;20025;-70
2022/02/09 20:02:48;;;;;;;17.92;7.15;;;8.00;58.30;;;;;;5058715;28;20025;-71
2022/02/09 20:05:20;;;;;;;11.05;6.53;;;8.00;58.50;;;;;;5076685;28;20029;-70
2022/02/09 20:07:46;;;;;;;13.48;6.35;;;7.90;58.50;;;;;;5062794;28;20058;-70
2022/02/09 20:10:12;;;;;;;12.77;7.53;;;7.90;58.50;;;;;;5095430;28;20071;-70
2022/02/09 20:12:42;;;;;;;12.77;7.68;;;7.80;58.70;;;;;;5077833;28;20031;-70
2022/02/09 20:15:13;;;;;;;12.70;6.43;;;7.80;58.70;;;;;;5090217;28;20387;-71
2022/02/09 20:17:40;;;;;;;16.70;6.63;;;7.80;58.70;;;;;;5077864;28;20108;-70
2022/02/09 20:20:09;;;;;;;12.55;6.68;;;7.70;58.60;;;;;;5062867;28;20032;-71
2022/02/09 20:22:35;;;;;;;13.20;6.65;;;7.70;58.70;;;;;;5077299;28;20024;-71
2022/02/09 20:25:02;;;;;;;15.35;7.78;;;7.70;58.70;;;;;;5077512;28;20437;-70
2022/02/09 20:27:29;;;;;;;18.05;8.85;;;7.70;58.70;;;;;;5096196;28;20027;-71
2022/02/09 20:29:56;;;;;;;19.05;10.98;;;7.60;58.80;;;;;;5095983;28;20115;-71
2022/02/09 20:32:29;;;;;;;16.88;8.93;;;7.60;58.90;;;;;;5077706;28;20033;-70
2022/02/09 20:34:57;;;;;;;14.63;8.38;;;7.60;59.10;;;;;;5075897;28;20140;-71
2022/02/09 20:37:25;;;;;;;16.45;7.95;;;7.60;59.20;;;;;;5057788;28;20500;-70
2022/02/09 20:40:10;;;;;;;18.10;8.02;;;7.50;59.40;;;;;;5057023;28;20033;-70
2022/02/09 20:42:38;;;;;;;18.60;7.30;;;7.50;59.50;;;;;;5057694;28;20372;-70
2022/02/09 20:45:14;;;;;;;12.35;6.50;;;7.50;59.40;;;;;;5076344;28;20029;-73
2022/02/09 20:47:44;;;;;;;17.80;7.18;;;7.40;59.40;;;;;;5075337;28;20032;-70
2022/02/09 20:50:10;;;;;;;14.85;7.55;;;7.40;59.40;;;;;;5075500;28;20029;-70
2022/02/09 20:52:36;;;;;;;12.27;6.68;;;7.40;59.50;;;;;;5057487;28;20031;-70
2022/02/09 20:55:03;;;;;;;14.02;7.00;;;7.40;59.50;;;;;;5075763;28;20028;-71
2022/02/09 20:57:32;;;;;;;16.02;7.45;;;7.30;59.50;;;;;;5057392;28;20082;-70
2022/02/09 21:00:08;;;;;;;18.42;9.27;;;7.30;59.50;;;;;;5088051;28;20028;-71
2022/02/09 21:02:48;;;;;;;18.30;10.25;;;7.30;59.70;;;;;;5076990;28;20036;-70
2022/02/09 21:08:12;;;;;;;;;;;7.30;60.00;;;;;;5075588;28;20154;-71
2022/02/09 21:10:50;;;;;;;19.13;9.18;;;7.20;59.50;;;;;;5068210;28;19995;-70
2022/02/09 21:13:47;;;;;;;19.45;9.20;;;7.20;59.70;;;;;;5074729;28;20073;-73
2022/02/09 21:32:07;;;;;;;16.77;8.98;;;7.00;60.20;;;;;;5095263;28;20031;-70
2022/02/09 21:45:14;;;;;;;17.92;8.52;;;6.90;60.30;;;;;;5074218;28;20024;-70
2022/02/09 22:19:17;;;;;;;18.73;8.82;;;6.50;60.90;;;;;;5024590;28;20429;-70
2022/02/09 22:22:30;;;;;;;12.00;5.70;;;6.50;60.90;;;;;;5046265;28;20115;-70
2022/02/09 22:27:44;;;;;;;12.13;5.95;;;6.40;60.80;;;;;;5094020;28;20144;-70
2022/02/09 22:56:52;;;;;;;10.55;4.85;;;6.20;61.70;;;;;;5073269;28;20491;-71
2022/02/09 22:59:29;;;;;;;11.85;5.40;;;6.20;61.80;;;;;;5072844;28;20033;-71
2022/02/09 23:02:01;;;;;;;12.57;5.90;;;6.20;62.00;;;;;;5051955;28;20025;-70
2022/02/09 23:04:47;;;;;;;11.38;5.63;;;6.20;62.10;;;;;;5068213;28;20035;-70
2022/02/09 23:18:07;;;;;;;;;;;6.10;62.80;;;;;;5073454;28;20498;-70
2022/02/09 23:54:19;;;;;;;13.63;6.93;;;6.00;62.60;;;;;;5049682;28;20094;-70
2022/02/09 23:58:53;;;;;;;11.85;6.07;;;5.90;62.50;;;;;;5072620;28;20564;-70
